Time;durP1;ratioP1;P1;durP2;ratioP2;P2;SDS_P1;SDS_P2;PMS_P1;PMS_P2;Temp;Humidity;BMP_temperature;BMP_pressure;BME280_temperature;BME280_humidity;BME280_pressure;Samples;Min_cycle;Max_cycle;Signal;HPM_P1;HPM_P2
2024/01/06 00:00:18;;;;;;;65.63;62.10;;;;;;;9.76;69.16;100263.75;5014538;28;20079;-74
2024/01/06 00:02:44;;;;;;;66.00;62.83;;;;;;;9.74;69.34;100272.09;5025905;28;20112;-74
2024/01/06 00:05:09;;;;;;;65.78;62.72;;;;;;;9.72;69.02;100270.69;5021106;28;20041;-74
2024/01/06 00:07:34;;;;;;;64.90;61.95;;;;;;;9.72;69.03;100268.00;5031695;28;20907;-74
2024/01/06 00:10:00;;;;;;;66.05;62.92;;;;;;;9.71;69.04;100272.59;5014994;28;20059;-74
2024/01/06 00:12:25;;;;;;;66.63;63.03;;;;;;;9.70;69.10;100278.22;5020955;28;20438;-74
2024/01/06 00:14:51;;;;;;;66.20;62.35;;;;;;;9.69;68.89;100282.81;5017277;28;20040;-75
2024/01/06 00:17:16;;;;;;;68.05;64.47;;;;;;;9.70;68.84;100280.91;5017042;28;20045;-75
2024/01/06 00:19:42;;;;;;;61.08;57.85;;;;;;;9.69;68.83;100287.38;5031546;28;20046;-74
2024/01/06 00:22:08;;;;;;;62.08;58.88;;;;;;;9.69;68.83;100290.09;5028939;28;20029;-76
2024/01/06 00:24:33;;;;;;;64.93;61.65;;;;;;;9.67;69.02;100293.00;5026321;28;20501;-74
2024/01/06 00:26:59;;;;;;;64.57;61.30;;;;;;;9.66;68.88;100290.59;5032145;28;20033;-74
2024/01/06 00:29:24;;;;;;;71.45;67.55;;;;;;;9.66;69.05;100296.78;5032378;28;20047;-74
2024/01/06 00:31:49;;;;;;;67.95;63.95;;;;;;;9.67;69.20;100303.00;5018231;28;20033;-75
2024/01/06 00:34:15;;;;;;;65.70;62.33;;;;;;;9.69;69.00;100317.06;5026565;28;20410;-74
2024/01/06 00:36:41;;;;;;;61.65;58.83;;;;;;;9.69;69.13;100317.88;5023786;28;20069;-74
2024/01/06 00:39:06;;;;;;;65.00;62.00;;;;;;;9.68;69.13;100310.03;5031698;28;20433;-75
2024/01/06 00:41:31;;;;;;;65.65;62.40;;;;;;;9.69;69.09;100312.47;5029755;28;20120;-75
2024/01/06 00:43:57;;;;;;;67.03;63.35;;;;;;;9.70;69.18;100313.28;5031446;28;20441;-75
2024/01/06 00:46:22;;;;;;;62.53;59.63;;;;;;;9.69;68.83;100317.88;5026055;28;20129;-75
2024/01/06 00:48:47;;;;;;;69.07;65.50;;;;;;;9.68;69.08;100318.94;5013656;28;20486;-75
2024/01/06 00:51:13;;;;;;;65.22;61.90;;;;;;;9.67;68.97;100311.91;5020969;28;20038;-75
2024/01/06 00:53:38;;;;;;;65.07;61.78;;;;;;;9.68;69.05;100310.84;5030442;28;20045;-74
2024/01/06 00:56:04;;;;;;;63.70;60.38;;;;;;;9.69;69.24;100315.16;5030768;28;20063;-75
2024/01/06 00:58:29;;;;;;;67.80;64.10;;;;;;;9.69;68.96;100315.16;5011245;28;20473;-74
2024/01/06 01:00:55;;;;;;;63.08;59.67;;;;;;;9.71;69.22;100320.31;5028183;28;20030;-74
2024/01/06 01:03:20;;;;;;;68.43;65.10;;;;;;;9.71;69.14;100318.44;5013014;28;20509;-77
2024/01/06 01:05:46;;;;;;;66.55;63.25;;;;;;;9.71;68.85;100321.13;5030903;28;20116;-75
2024/01/06 01:08:11;;;;;;;66.82;63.42;;;;;;;9.73;69.09;100327.09;5026791;28;20126;-74
2024/01/06 01:10:36;;;;;;;67.28;63.55;;;;;;;9.73;69.08;100329.00;5017515;28;20038;-75
2024/01/06 01:13:02;;;;;;;68.30;64.78;;;;;;;9.74;69.07;100336.81;5012800;28;20052;-74
2024/01/06 01:15:27;;;;;;;68.72;64.80;;;;;;;9.74;68.92;100330.63;5022931;28;20567;-74
2024/01/06 01:17:53;;;;;;;62.55;59.55;;;;;;;9.73;69.04;100337.91;5017467;28;20124;-75
2024/01/06 01:20:18;;;;;;;64.00;60.92;;;;;;;9.73;69.01;100345.19;5028952;28;20109;-75
2024/01/06 01:22:43;;;;;;;64.63;61.30;;;;;;;9.72;69.08;100338.94;5029112;28;20470;-75
2024/01/06 01:25:09;;;;;;;65.70;62.60;;;;;;;9.73;68.85;100348.69;5019806;28;20489;-75
2024/01/06 01:27:35;;;;;;;66.07;62.83;;;;;;;9.74;68.92;100357.59;5014756;28;20112;-74
2024/01/06 01:30:00;;;;;;;68.22;64.70;;;;;;;9.73;68.96;100364.06;5024695;28;20397;-74
2024/01/06 01:32:26;;;;;;;67.85;64.53;;;;;;;9.73;68.97;100358.66;5012020;28;20030;-75
2024/01/06 01:34:51;;;;;;;68.32;64.82;;;;;;;9.72;68.93;100365.09;5012780;28;20046;-74
2024/01/06 01:37:16;;;;;;;62.65;59.65;;;;;;;9.72;69.03;100359.72;5011159;28;20038;-74
2024/01/06 01:39:42;;;;;;;69.47;65.75;;;;;;;9.72;69.02;100367.78;5013380;28;20038;-75
2024/01/06 01:42:07;;;;;;;70.22;66.03;;;;;;;9.70;69.11;100365.38;5011825;28;20034;-74
2024/01/06 01:44:33;;;;;;;64.63;61.17;;;;;;;9.70;69.00;100372.63;5022001;28;20045;-75
2024/01/06 01:46:58;;;;;;;65.82;62.47;;;;;;;9.69;68.77;100374.50;5012551;28;20128;-74
2024/01/06 01:49:25;;;;;;;63.05;60.05;;;;;;;9.68;68.91;100382.84;5018206;28;20486;-75
2024/01/06 01:51:51;;;;;;;65.88;62.53;;;;;;;9.66;68.73;100383.09;5026884;28;20041;-74
2024/01/06 01:54:16;;;;;;;67.82;64.50;;;;;;;9.66;68.79;100382.28;5018367;28;20037;-75
2024/01/06 01:56:42;;;;;;;62.00;58.90;;;;;;;9.66;68.87;100385.78;5028378;28;20030;-74
2024/01/06 01:59:13;;;;;;;63.70;60.63;;;;;;;9.66;68.79;100393.06;5012082;28;20033;-74
2024/01/06 02:01:40;;;;;;;66.45;63.25;;;;;;;9.65;68.70;100402.19;5021611;28;20156;-75
2024/01/06 02:04:05;;;;;;;66.55;63.05;;;;;;;9.64;68.63;100398.69;5023748;28;20520;-74
2024/01/06 02:06:31;;;;;;;63.10;60.00;;;;;;;9.63;68.90;100409.75;4993880;28;20113;-75
2024/01/06 02:08:56;;;;;;;62.38;59.38;;;;;;;9.62;69.00;100408.91;5016096;28;20041;-75
2024/01/06 02:11:22;;;;;;;65.90;62.65;;;;;;;9.60;68.50;100410.22;5017685;28;20081;-75
2024/01/06 02:13:47;;;;;;;62.53;59.53;;;;;;;9.58;68.53;100409.66;5034196;28;20123;-75
2024/01/06 02:16:13;;;;;;;62.63;59.53;;;;;;;9.55;68.63;100413.66;5018243;28;20044;-75
2024/01/06 02:18:38;;;;;;;65.35;62.20;;;;;;;9.53;68.83;100421.97;5037871;28;20131;-74
2024/01/06 02:21:06;;;;;;;61.25;58.40;;;;;;;9.52;68.90;100417.66;5025808;28;20396;-74
2024/01/06 02:23:35;;;;;;;66.45;63.13;;;;;;;9.51;68.65;100426.78;5037475;28;20068;-75
2024/01/06 02:26:01;;;;;;;61.40;58.40;;;;;;;9.51;68.76;100423.28;5036199;28;20132;-75
2024/01/06 02:28:26;;;;;;;62.00;58.90;;;;;;;9.51;68.92;100426.78;5035512;28;20115;-74
2024/01/06 02:30:52;;;;;;;67.97;64.28;;;;;;;9.51;68.63;100432.19;5018897;28;20034;-75
2024/01/06 02:33:19;;;;;;;60.67;57.72;;;;;;;9.53;68.85;100429.25;5033406;28;20033;-74
2024/01/06 02:35:45;;;;;;;65.80;62.47;;;;;;;9.52;68.71;100433.00;5021647;28;20037;-74
2024/01/06 02:38:11;;;;;;;61.90;59.05;;;;;;;9.51;68.60;100439.47;5036294;28;20040;-74
2024/01/06 02:40:36;;;;;;;62.53;59.63;;;;;;;9.51;68.65;100444.84;5018297;28;20116;-75
2024/01/06 02:43:02;;;;;;;61.28;58.15;;;;;;;9.49;68.63;100446.97;5037392;28;20119;-76
2024/01/06 02:45:27;;;;;;;58.65;55.95;;;;;;;9.47;68.46;100449.09;5012807;28;20034;-75
2024/01/06 02:47:52;;;;;;;61.00;58.03;;;;;;;9.45;68.41;100451.19;5027715;28;20030;-74
2024/01/06 02:50:18;;;;;;;65.90;62.40;;;;;;;9.45;68.38;100468.22;5035719;28;20038;-75
2024/01/06 02:52:45;;;;;;;65.53;62.28;;;;;;;9.42;68.39;100460.59;5026556;28;20540;-74
2024/01/06 02:55:10;;;;;;;63.55;60.63;;;;;;;9.42;68.43;100462.47;5031761;28;20079;-75
2024/01/06 02:57:37;;;;;;;61.67;58.72;;;;;;;9.41;68.53;100468.94;5020432;28;20690;-75
2024/01/06 03:00:03;;;;;;;58.58;55.88;;;;;;;9.41;68.66;100467.06;5035930;28;20030;-74
2024/01/06 03:02:28;;;;;;;59.88;57.05;;;;;;;9.41;68.27;100471.63;5024014;28;20052;-74
2024/01/06 03:04:54;;;;;;;59.72;56.85;;;;;;;9.37;68.52;100473.16;5026648;28;20030;-75
2024/01/06 03:07:20;;;;;;;68.18;64.22;;;;;;;9.37;68.60;100476.66;5026621;28;20029;-74
2024/01/06 03:09:46;;;;;;;60.30;57.30;;;;;;;9.34;68.16;100473.66;5040566;28;20631;-74
2024/01/06 03:12:11;;;;;;;62.05;58.90;;;;;;;9.29;68.38;100483.28;5022636;28;20122;-74
2024/01/06 03:14:37;;;;;;;61.45;58.45;;;;;;;9.26;68.72;100483.75;5021961;28;20038;-75
2024/01/06 03:17:03;;;;;;;59.70;56.40;;;;;;;9.25;68.41;100489.41;5016903;28;20037;-74
2024/01/06 03:19:32;;;;;;;59.53;56.72;;;;;;;9.23;68.29;100494.22;5024201;28;20021;-74
2024/01/06 03:21:57;;;;;;;61.05;58.15;;;;;;;9.22;68.45;100496.09;5032101;28;20077;-74
2024/01/06 03:24:23;;;;;;;59.67;56.72;;;;;;;9.22;68.30;100490.69;5015097;28;20433;-74
2024/01/06 03:26:49;;;;;;;60.45;57.50;;;;;;;9.20;68.38;100506.28;5018316;28;20088;-75
2024/01/06 03:29:15;;;;;;;58.35;55.42;;;;;;;9.21;68.48;100504.41;5022566;28;20025;-76
2024/01/06 03:31:46;;;;;;;63.92;60.88;;;;;;;9.21;68.46;100510.59;5014232;28;20038;-74
2024/01/06 03:34:12;;;;;;;60.20;57.10;;;;;;;9.22;68.53;100511.41;5040387;28;20514;-75
2024/01/06 03:36:41;;;;;;;63.25;60.13;;;;;;;9.22;68.61;100509.56;5018317;28;20137;-75
2024/01/06 03:39:07;;;;;;;57.75;54.67;;;;;;;9.25;68.58;100516.34;5017772;28;20052;-75
2024/01/06 03:41:32;;;;;;;62.67;59.75;;;;;;;9.25;68.43;100516.34;5014563;28;20034;-75
2024/01/06 03:43:58;;;;;;;60.70;57.85;;;;;;;9.24;68.42;100523.59;5020450;28;20124;-75
2024/01/06 03:46:24;;;;;;;58.78;55.95;;;;;;;9.24;68.80;100522.78;5032495;28;20474;-75
2024/01/06 03:48:49;;;;;;;60.53;57.55;;;;;;;9.26;68.56;100529.56;5033179;28;20105;-75
2024/01/06 03:51:15;;;;;;;60.13;57.30;;;;;;;9.27;68.66;100528.53;5015714;28;20026;-74
2024/01/06 03:53:41;;;;;;;63.90;60.58;;;;;;;9.30;68.79;100529.94;5021603;28;20038;-75
2024/01/06 03:56:06;;;;;;;60.28;57.47;;;;;;;9.30;68.76;100535.31;5028395;28;20162;-74
2024/01/06 03:58:32;;;;;;;63.70;60.30;;;;;;;9.32;68.77;100534.03;5025204;28;20029;-75
2024/01/06 04:00:58;;;;;;;57.63;54.78;;;;;;;9.33;68.56;100534.84;5022939;28;20092;-74
2024/01/06 04:03:23;;;;;;;63.50;60.25;;;;;;;9.34;68.79;100532.94;5024370;28;20144;-74
2024/01/06 04:05:48;;;;;;;62.17;59.08;;;;;;;9.35;68.73;100542.66;5036900;28;20089;-75
2024/01/06 04:08:14;;;;;;;61.83;58.83;;;;;;;9.36;68.61;100544.31;5012777;28;20044;-74
2024/01/06 04:10:41;;;;;;;66.82;63.10;;;;;;;9.35;68.78;100543.50;5034976;28;20049;-76
2024/01/06 04:13:07;;;;;;;63.63;60.42;;;;;;;9.35;68.55;100553.44;5017672;28;20048;-75
2024/01/06 04:15:32;;;;;;;59.75;56.53;;;;;;;9.34;68.69;100549.94;5022326;28;20108;-74
2024/01/06 04:18:02;;;;;;;59.17;56.30;;;;;;;9.32;68.51;100560.13;5029428;28;20041;-74
2024/01/06 04:20:27;;;;;;;59.83;56.92;;;;;;;9.31;68.51;100556.63;5032693;28;20505;-74
2024/01/06 04:22:53;;;;;;;57.42;54.58;;;;;;;9.30;68.44;100555.00;5030614;28;20034;-74
2024/01/06 04:25:18;;;;;;;62.38;59.38;;;;;;;9.31;68.68;100558.50;5013854;28;20049;-74
2024/01/06 04:27:46;;;;;;;64.45;61.15;;;;;;;9.30;68.49;100567.66;5021221;28;20060;-74
2024/01/06 04:30:12;;;;;;;60.28;57.47;;;;;;;9.29;68.56;100563.31;5026327;28;20072;-75
2024/01/06 04:32:37;;;;;;;63.17;60.25;;;;;;;9.27;68.57;100578.91;5013863;28;20061;-75
2024/01/06 04:35:03;;;;;;;71.55;67.25;;;;;;;9.24;68.42;100572.09;5023832;28;20450;-75
2024/01/06 04:37:28;;;;;;;63.95;59.67;;;;;;;9.21;67.99;100569.91;5030839;28;20041;-75
2024/01/06 04:39:53;;;;;;;59.97;56.75;;;;;;;9.18;67.99;100574.94;5011759;28;20117;-74
2024/01/06 04:42:22;;;;;;;57.83;54.88;;;;;;;9.15;68.12;100570.88;5020019;28;20478;-74
2024/01/06 04:44:47;;;;;;;69.78;65.85;;;;;;;9.13;68.05;100580.25;5015852;28;20033;-74
2024/01/06 04:47:13;;;;;;;61.13;58.20;;;;;;;9.10;67.97;100576.16;5014524;28;20064;-75
2024/01/06 04:49:38;;;;;;;56.53;53.80;;;;;;;9.08;67.87;100587.16;5031134;28;20038;-74
2024/01/06 04:52:04;;;;;;;61.17;58.38;;;;;;;9.05;68.10;100592.19;5021521;28;20037;-74
2024/01/06 04:54:29;;;;;;;58.10;55.33;;;;;;;9.03;68.00;100597.81;5013144;28;20045;-74
2024/01/06 04:56:55;;;;;;;58.13;55.25;;;;;;;9.01;68.25;100597.22;5031112;28;20037;-74
2024/01/06 04:59:21;;;;;;;55.72;53.03;;;;;;;9.01;68.26;100596.41;5023193;28;20128;-74
2024/01/06 05:01:46;;;;;;;59.50;56.45;;;;;;;9.00;68.15;100592.91;5027720;28;20623;-75
2024/01/06 05:04:12;;;;;;;57.95;55.22;;;;;;;9.00;68.34;100598.28;5034871;28;20041;-74
2024/01/06 05:06:37;;;;;;;56.00;53.28;;;;;;;9.00;68.40;100592.91;5013899;28;20421;-74
2024/01/06 05:09:03;;;;;;;60.08;57.17;;;;;;;9.00;68.08;100600.97;5000240;28;20108;-74
2024/01/06 05:11:29;;;;;;;56.38;53.58;;;;;;;9.00;68.08;100606.38;5011139;28;20042;-74
2024/01/06 05:13:54;;;;;;;66.90;63.70;;;;;;;8.97;68.25;100614.09;5018786;28;20088;-74
2024/01/06 05:16:19;;;;;;;60.00;57.22;;;;;;;8.96;68.21;100612.47;5031273;28;20120;-74
2024/01/06 05:18:45;;;;;;;58.55;55.85;;;;;;;8.94;68.29;100620.75;5028529;28;20033;-74
2024/01/06 05:21:10;;;;;;;58.33;55.63;;;;;;;8.94;68.40;100619.94;5028721;28;20069;-74
2024/01/06 05:23:36;;;;;;;60.83;57.95;;;;;;;8.96;68.41;100634.00;5018782;28;20038;-75
2024/01/06 05:26:01;;;;;;;59.58;56.28;;;;;;;8.97;68.55;100638.34;5029351;28;20060;-74
2024/01/06 05:28:26;;;;;;;58.00;55.20;;;;;;;8.94;68.38;100634.22;5028293;28;20097;-74
2024/01/06 05:30:52;;;;;;;63.55;60.38;;;;;;;8.95;68.38;100635.09;5016322;28;20494;-74
2024/01/06 05:33:17;;;;;;;51.95;49.50;;;;;;;8.95;68.35;100645.84;5023527;28;20022;-74
2024/01/06 05:35:42;;;;;;;60.33;57.22;;;;;;;8.94;68.28;100647.69;5014046;28;20045;-74
2024/01/06 05:38:08;;;;;;;60.92;57.90;;;;;;;8.95;68.49;100649.38;5013012;28;20033;-74
2024/01/06 05:40:33;;;;;;;55.20;52.53;;;;;;;8.95;68.06;100653.94;5020313;28;20440;-74
2024/01/06 05:42:59;;;;;;;58.50;55.58;;;;;;;8.90;67.86;100646.56;5030176;28;20041;-74
2024/01/06 05:45:24;;;;;;;61.95;58.72;;;;;;;8.87;68.04;100644.34;5020502;28;20067;-74
2024/01/06 05:47:49;;;;;;;55.45;52.70;;;;;;;8.85;67.88;100646.44;5022178;28;20038;-75
2024/01/06 05:50:16;;;;;;;59.58;56.60;;;;;;;8.82;68.00;100650.41;5019968;28;20368;-75
2024/01/06 05:52:42;;;;;;;59.15;56.05;;;;;;;8.82;68.24;100646.88;5022914;28;20037;-74
2024/01/06 05:55:08;;;;;;;60.92;57.92;;;;;;;8.81;68.04;100648.75;5023621;28;20033;-74
2024/01/06 05:57:34;;;;;;;59.53;56.63;;;;;;;8.79;67.98;100652.72;5017840;28;20123;-74
2024/01/06 05:59:59;;;;;;;60.30;57.20;;;;;;;8.78;68.12;100657.31;5018365;28;20354;-74
2024/01/06 06:02:25;;;;;;;59.97;56.80;;;;;;;8.78;68.07;100659.19;5021607;28;20068;-74
2024/01/06 06:04:51;;;;;;;60.65;57.75;;;;;;;8.77;67.62;100663.75;5018798;28;20478;-75
2024/01/06 06:07:16;;;;;;;58.13;54.58;;;;;;;8.77;68.01;100671.84;5025922;28;20073;-74
2024/01/06 06:09:41;;;;;;;55.10;52.30;;;;;;;8.75;68.25;100673.94;5013206;28;20121;-74
2024/01/06 06:12:07;;;;;;;58.80;55.60;;;;;;;8.75;67.95;100683.91;5024515;28;20390;-74
2024/01/06 06:14:33;;;;;;;56.78;53.80;;;;;;;8.76;68.03;100689.03;5021399;28;20371;-73
2024/01/06 06:16:58;;;;;;;59.47;56.47;;;;;;;8.76;67.94;100697.13;5027912;28;20040;-74
2024/01/06 06:19:24;;;;;;;57.90;55.10;;;;;;;8.77;68.08;100697.94;5028201;28;20061;-74
2024/01/06 06:21:49;;;;;;;60.22;57.17;;;;;;;8.77;68.29;100706.84;5039465;28;20037;-74
2024/01/06 06:24:14;;;;;;;53.38;50.75;;;;;;;8.75;67.80;100700.06;5029010;28;20465;-74
2024/01/06 06:26:40;;;;;;;54.83;52.13;;;;;;;8.74;68.10;100709.97;5012207;28;20030;-75
2024/01/06 06:29:05;;;;;;;54.90;52.22;;;;;;;8.75;68.28;100706.25;5013832;28;20040;-74
2024/01/06 06:31:31;;;;;;;62.05;59.25;;;;;;;8.75;68.25;100717.03;5016477;28;20042;-74
2024/01/06 06:33:56;;;;;;;60.90;57.60;;;;;;;8.76;68.28;100723.22;5016185;28;20034;-75
2024/01/06 06:36:21;;;;;;;54.92;52.22;;;;;;;8.76;68.40;100725.91;5012539;28;20038;-75
2024/01/06 06:38:47;;;;;;;58.67;55.97;;;;;;;8.75;68.37;100729.69;5014885;28;20038;-76
2024/01/06 06:41:12;;;;;;;54.08;51.55;;;;;;;8.75;68.44;100735.88;5025460;28;20342;-73
2024/01/06 06:43:38;;;;;;;57.53;54.42;;;;;;;8.76;68.42;100736.69;5014837;28;20072;-74
2024/01/06 06:46:03;;;;;;;55.40;52.65;;;;;;;8.75;68.45;100735.06;5022473;28;20030;-75
2024/01/06 06:48:29;;;;;;;62.03;59.13;;;;;;;8.75;68.45;100741.25;5013358;28;20117;-74
2024/01/06 06:50:55;;;;;;;60.38;57.47;;;;;;;8.76;68.40;100742.09;5019449;28;20033;-75
2024/01/06 06:53:20;;;;;;;58.20;55.50;;;;;;;8.75;68.38;100745.84;5025136;28;20026;-74
2024/01/06 06:55:46;;;;;;;62.42;59.42;;;;;;;8.74;68.49;100753.06;5026680;28;20045;-75
2024/01/06 06:58:12;;;;;;;58.17;55.28;;;;;;;8.72;68.33;100751.66;5027712;28;20032;-74
2024/01/06 07:00:38;;;;;;;62.88;59.97;;;;;;;8.72;68.41;100762.44;5031164;28;20385;-74
2024/01/06 07:03:03;;;;;;;61.33;58.42;;;;;;;8.73;68.30;100767.59;5031870;28;20030;-73
2024/01/06 07:05:29;;;;;;;57.65;54.95;;;;;;;8.73;68.38;100764.91;5032846;28;20121;-74
2024/01/06 07:07:54;;;;;;;59.75;57.00;;;;;;;8.73;68.55;100773.00;5012345;28;20037;-74
2024/01/06 07:10:19;;;;;;;54.35;51.75;;;;;;;8.74;68.31;100779.19;5012510;28;20119;-74
2024/01/06 07:12:45;;;;;;;57.13;54.42;;;;;;;8.76;68.32;100787.88;5034384;28;20042;-75
2024/01/06 07:15:11;;;;;;;57.75;54.92;;;;;;;8.75;68.27;100797.81;5026324;28;20076;-75
2024/01/06 07:17:38;;;;;;;63.10;60.20;;;;;;;8.75;68.36;100792.44;5025810;28;20029;-75
2024/01/06 07:20:04;;;;;;;57.22;54.42;;;;;;;8.76;68.31;100790.56;5020249;28;20041;-75
2024/01/06 07:22:30;;;;;;;62.13;59.13;;;;;;;8.76;68.28;100801.34;5013672;28;20034;-74
2024/01/06 07:24:55;;;;;;;65.85;62.53;;;;;;;8.77;68.40;100800.28;5033968;28;20057;-74
2024/01/06 07:27:20;;;;;;;56.17;53.38;;;;;;;8.76;68.56;100799.44;5017594;28;20445;-74
2024/01/06 07:29:46;;;;;;;58.22;55.22;;;;;;;8.75;68.18;100799.69;5002818;28;20041;-74
2024/01/06 07:32:11;;;;;;;60.05;56.95;;;;;;;8.75;68.42;100805.91;5021900;28;20117;-74
2024/01/06 07:34:36;;;;;;;60.25;57.40;;;;;;;8.75;68.27;100813.97;5023314;28;20042;-74
2024/01/06 07:37:02;;;;;;;53.72;51.17;;;;;;;8.74;68.30;100814.19;5029082;28;20103;-74
2024/01/06 07:39:27;;;;;;;56.03;53.40;;;;;;;8.75;68.13;100821.25;5015212;28;20030;-74
2024/01/06 07:41:53;;;;;;;56.95;54.15;;;;;;;8.74;68.20;100823.09;5004451;28;20432;-74
2024/01/06 07:44:24;;;;;;;59.22;56.47;;;;;;;8.74;68.30;100827.66;5032110;28;20579;-73
2024/01/06 07:46:51;;;;;;;58.72;55.47;;;;;;;8.72;68.12;100824.38;5016636;28;20042;-73
2024/01/06 07:49:16;;;;;;;57.50;54.60;;;;;;;8.71;68.01;100831.63;5020409;28;20046;-73
2024/01/06 07:51:41;;;;;;;58.22;55.47;;;;;;;8.70;68.06;100823.81;5025245;28;20460;-74
2024/01/06 07:54:08;;;;;;;60.15;56.78;;;;;;;8.69;68.23;100832.91;5017000;28;20045;-75
2024/01/06 07:56:34;;;;;;;56.63;53.83;;;;;;;8.68;68.00;100832.09;5024858;28;20049;-75
2024/01/06 07:59:00;;;;;;;57.60;54.72;;;;;;;8.66;68.14;100843.09;5029946;28;20107;-75
2024/01/06 08:01:26;;;;;;;58.28;55.30;;;;;;;8.65;68.00;100846.84;5028443;28;20041;-74
2024/01/06 08:03:51;;;;;;;59.38;56.40;;;;;;;8.63;68.24;100851.63;5024304;28;20045;-74
2024/01/06 08:06:17;;;;;;;60.08;57.08;;;;;;;8.63;67.99;100859.69;5020584;28;20038;-74
2024/01/06 08:08:42;;;;;;;56.75;54.00;;;;;;;8.62;68.21;100855.38;5016399;28;20474;-73
2024/01/06 08:11:08;;;;;;;55.13;52.42;;;;;;;8.62;68.15;100865.34;5018327;28;20033;-75
2024/01/06 08:13:33;;;;;;;57.83;54.70;;;;;;;8.61;67.93;100869.06;5029714;28;20072;-75
2024/01/06 08:15:59;;;;;;;57.70;54.95;;;;;;;8.59;68.04;100869.31;5013864;28;20579;-74
2024/01/06 08:18:24;;;;;;;58.13;55.25;;;;;;;8.58;67.90;100875.72;5029471;28;20116;-74
2024/01/06 08:20:50;;;;;;;57.70;54.70;;;;;;;8.58;68.17;100880.28;5031598;28;20474;-74
2024/01/06 08:23:18;;;;;;;57.13;54.28;;;;;;;8.57;67.79;100882.16;5019661;28;20557;-74
2024/01/06 08:25:45;;;;;;;60.45;56.92;;;;;;;8.56;68.21;100879.69;5032795;28;20132;-75
2024/01/06 08:28:11;;;;;;;57.50;54.35;;;;;;;8.56;68.09;100882.38;5030627;28;20033;-75
2024/01/06 08:30:36;;;;;;;59.65;56.83;;;;;;;8.57;68.29;100887.53;5030185;28;20039;-74
2024/01/06 08:33:02;;;;;;;57.95;55.15;;;;;;;8.58;68.25;100901.81;5022897;28;20167;-74
2024/01/06 08:35:27;;;;;;;57.42;54.75;;;;;;;8.60;68.14;100905.13;5016368;28;20050;-74
2024/01/06 08:37:53;;;;;;;61.58;57.97;;;;;;;8.58;67.81;100902.66;5028514;28;20037;-75
2024/01/06 08:40:18;;;;;;;53.83;51.10;;;;;;;8.56;67.84;100907.44;5007345;28;20057;-75
2024/01/06 08:42:44;;;;;;;62.33;58.80;;;;;;;8.52;67.56;100903.56;5031508;28;20448;-74
2024/01/06 08:45:09;;;;;;;53.30;50.55;;;;;;;8.50;67.83;100907.53;5030637;28;20044;-73
2024/01/06 08:47:35;;;;;;;59.25;56.20;;;;;;;8.47;68.03;100908.78;5025325;28;20042;-74
2024/01/06 08:50:00;;;;;;;56.25;53.67;;;;;;;8.45;67.79;100911.69;5018666;28;20062;-74
2024/01/06 08:52:25;;;;;;;55.30;52.65;;;;;;;8.45;67.87;100917.09;5011411;28;20048;-75
2024/01/06 08:54:51;;;;;;;58.75;56.05;;;;;;;8.45;68.04;100922.47;5021093;28;20069;-75
2024/01/06 08:57:16;;;;;;;55.25;52.58;;;;;;;8.44;67.65;100925.38;5001089;28;20424;-75
2024/01/06 08:59:43;;;;;;;54.42;51.63;;;;;;;8.42;67.83;100928.31;5021645;28;20022;-76
2024/01/06 09:02:09;;;;;;;60.20;56.95;;;;;;;8.43;67.55;100937.19;5015315;28;20124;-75
2024/01/06 09:04:34;;;;;;;54.63;51.63;;;;;;;8.42;67.75;100940.94;5025955;28;20438;-75
2024/01/06 09:07:00;;;;;;;57.33;54.53;;;;;;;8.42;67.97;100949.03;5015548;28;20037;-74
2024/01/06 09:09:25;;;;;;;56.88;54.08;;;;;;;8.40;68.01;100949.22;5015908;28;20034;-74
2024/01/06 09:11:50;;;;;;;61.55;58.35;;;;;;;8.39;68.01;100952.09;5011802;28;20041;-75
2024/01/06 09:14:19;;;;;;;60.72;57.33;;;;;;;8.39;68.00;100954.78;5030993;28;20567;-75
2024/01/06 09:16:45;;;;;;;54.53;51.92;;;;;;;8.37;67.86;100955.03;5030636;28;20478;-75
2024/01/06 09:19:10;;;;;;;56.40;52.75;;;;;;;8.36;67.82;100960.63;5026367;28;20040;-74
2024/01/06 09:21:36;;;;;;;52.40;49.90;;;;;;;8.36;67.76;100966.84;5030281;28;20033;-75
2024/01/06 09:24:06;;;;;;;53.05;50.58;;;;;;;8.35;67.71;100969.75;5015590;28;20033;-75
2024/01/06 09:26:32;;;;;;;55.88;53.28;;;;;;;8.35;67.71;100978.66;5018635;28;20041;-74
2024/01/06 09:28:57;;;;;;;55.22;52.40;;;;;;;8.34;67.47;100977.03;5017839;28;20429;-74
2024/01/06 09:31:23;;;;;;;60.17;57.15;;;;;;;8.34;67.78;100981.56;5030131;28;20288;-74
2024/01/06 09:33:49;;;;;;;52.00;49.15;;;;;;;8.33;67.92;100983.44;5030308;28;20030;-74
2024/01/06 09:36:15;;;;;;;55.35;52.58;;;;;;;8.34;67.93;100985.09;5030497;28;20034;-73
2024/01/06 09:38:41;;;;;;;52.88;50.38;;;;;;;8.33;68.19;100996.88;5029256;28;20038;-72
2024/01/06 09:41:06;;;;;;;53.72;51.10;;;;;;;8.33;67.96;100999.59;5014975;28;20617;-73
2024/01/06 09:43:33;;;;;;;55.58;52.78;;;;;;;8.32;67.91;101003.34;5033251;28;20060;-73
2024/01/06 09:46:07;;;;;;;56.45;53.65;;;;;;;8.30;67.79;101009.97;5023364;28;20029;-74
2024/01/06 09:48:39;;;;;;;54.30;51.58;;;;;;;8.29;68.04;101016.38;5029940;28;20036;-73
2024/01/06 09:51:10;;;;;;;53.97;50.25;;;;;;;8.28;67.92;101012.88;5020744;28;20045;-74
2024/01/06 09:53:40;;;;;;;54.92;52.22;;;;;;;8.28;68.16;101018.25;5029334;28;20128;-73
2024/01/06 09:56:06;;;;;;;50.70;48.30;;;;;;;8.28;68.07;101020.94;5028286;28;20038;-73
2024/01/06 09:58:34;;;;;;;50.63;47.97;;;;;;;8.29;67.86;101030.69;5014361;28;20037;-73
2024/01/06 10:01:01;;;;;;;55.42;52.33;;;;;;;8.28;67.79;101023.66;5024078;28;20053;-75
2024/01/06 10:03:27;;;;;;;52.72;50.15;;;;;;;8.27;67.68;101031.97;5020380;28;20123;-76
2024/01/06 10:05:52;;;;;;;56.15;53.28;;;;;;;8.26;68.02;101023.03;5030354;28;20450;-74
2024/01/06 10:08:18;;;;;;;54.28;51.67;;;;;;;8.25;67.75;101032.16;5028429;28;20033;-75
2024/01/06 10:10:45;;;;;;;55.30;52.30;;;;;;;8.23;67.84;101028.88;5024377;28;20037;-74
2024/01/06 10:13:10;;;;;;;55.08;52.05;;;;;;;8.24;68.03;101035.91;5019174;28;20118;-75
2024/01/06 10:15:36;;;;;;;53.75;51.10;;;;;;;8.22;67.75;101038.81;5027722;28;20056;-75
2024/01/06 10:18:03;;;;;;;53.20;50.50;;;;;;;8.21;67.58;101039.88;5029658;28;20124;-75
2024/01/06 10:20:29;;;;;;;56.08;53.05;;;;;;;8.21;67.63;101044.41;5027294;28;20029;-75
2024/01/06 10:22:54;;;;;;;52.20;49.70;;;;;;;8.22;67.58;101046.88;5027695;28;20108;-75
2024/01/06 10:25:23;;;;;;;52.50;49.65;;;;;;;8.22;68.05;101052.25;5017728;28;20136;-76
2024/01/06 10:27:49;;;;;;;59.05;56.10;;;;;;;8.24;68.03;101052.06;5026318;28;20372;-75
2024/01/06 10:30:17;;;;;;;56.13;53.13;;;;;;;8.25;67.91;101059.06;5026295;28;20473;-75
2024/01/06 10:32:43;;;;;;;;;;;;;;;8.24;68.03;101055.56;5022784;28;20046;-76
2024/01/06 10:35:09;;;;;;;51.17;48.63;;;;;;;8.24;67.85;101058.25;5032314;28;19913;-75
2024/01/06 10:37:36;;;;;;;55.08;51.83;;;;;;;8.24;68.13;101066.34;5031292;28;20037;-76
2024/01/06 10:40:11;;;;;;;52.72;50.08;;;;;;;8.24;67.68;101068.22;5012359;28;20037;-76
2024/01/06 10:42:41;;;;;;;53.00;50.35;;;;;;;8.24;67.77;101069.03;5034327;28;20589;-76
2024/01/06 10:45:09;;;;;;;54.00;51.17;;;;;;;8.23;67.82;101066.53;5027976;28;20038;-75
2024/01/06 10:47:39;;;;;;;57.55;54.28;;;;;;;8.23;67.84;101070.06;5026577;28;20363;-75
2024/01/06 10:50:05;;;;;;;51.17;48.70;;;;;;;8.23;67.96;101070.06;5022154;28;20120;-75
2024/01/06 10:52:31;;;;;;;55.13;52.33;;;;;;;8.24;67.75;101078.97;5009502;28;20077;-75
2024/01/06 10:54:57;;;;;;;54.38;51.70;;;;;;;8.23;67.62;101069.22;5027913;28;20124;-76
2024/01/06 10:57:23;;;;;;;58.25;54.85;;;;;;;8.22;67.64;101076.50;5030323;28;20106;-75
2024/01/06 10:59:52;;;;;;;57.10;54.03;;;;;;;8.21;67.87;101071.31;5030074;28;20477;-77
2024/01/06 11:02:19;;;;;;;53.90;51.15;;;;;;;8.20;67.81;101073.19;5025487;28;20079;-76
2024/01/06 11:04:46;;;;;;;55.28;52.47;;;;;;;8.21;67.91;101082.94;5026362;28;20026;-75
2024/01/06 11:07:15;;;;;;;57.70;54.65;;;;;;;8.23;68.06;101082.69;5024285;28;20033;-76
2024/01/06 11:09:50;;;;;;;54.53;51.47;;;;;;;8.23;67.95;101086.19;5024728;28;20040;-75